sensor_id;sensor_type;location;lat;lon;timestamp;pressure;altitude;pressure_sealevel;temperature;humidity
23229;BME280;11783;50.350;6.576;2023-07-28T00:00:05;95403.91;;;16.28;100.00
23229;BME280;11783;50.350;6.576;2023-07-28T00:02:31;95403.91;;;16.42;100.00
23229;BME280;11783;50.350;6.576;2023-07-28T00:04:56;95410.66;;;16.40;100.00
23229;BME280;11783;50.350;6.576;2023-07-28T00:07:21;95410.84;;;16.43;100.00
23229;BME280;11783;50.350;6.576;2023-07-28T00:09:47;95411.22;;;16.50;100.00
23229;BME280;11783;50.350;6.576;2023-07-28T00:12:12;95412.63;;;16.48;100.00
23229;BME280;11783;50.350;6.576;2023-07-28T00:14:37;95402.66;;;16.62;100.00
23229;BME280;11783;50.350;6.576;2023-07-28T00:17:03;95406.66;;;16.51;100.00
23229;BME280;11783;50.350;6.576;2023-07-28T00:19:28;95413.31;;;16.53;100.00
23229;BME280;11783;50.350;6.576;2023-07-28T00:21:54;95408.03;;;16.62;100.00
23229;BME280;11783;50.350;6.576;2023-07-28T00:24:21;95410.41;;;16.63;100.00
23229;BME280;11783;50.350;6.576;2023-07-28T00:26:46;95411.50;;;16.62;100.00
23229;BME280;11783;50.350;6.576;2023-07-28T00:29:12;95409.53;;;16.68;100.00
23229;BME280;11783;50.350;6.576;2023-07-28T00:31:37;95415.47;;;16.65;100.00
23229;BME280;11783;50.350;6.576;2023-07-28T00:34:03;95406.94;;;16.63;100.00
23229;BME280;11783;50.350;6.576;2023-07-28T00:36:29;95399.38;;;16.65;100.00
23229;BME280;11783;50.350;6.576;2023-07-28T00:38:54;95392.75;;;16.62;100.00
23229;BME280;11783;50.350;6.576;2023-07-28T00:41:20;95393.75;;;16.67;100.00
23229;BME280;11783;50.350;6.576;2023-07-28T00:43:45;95392.66;;;16.68;100.00
23229;BME280;11783;50.350;6.576;2023-07-28T00:46:10;95391.56;;;16.69;100.00
23229;BME280;11783;50.350;6.576;2023-07-28T00:48:36;95390.06;;;16.76;100.00
23229;BME280;11783;50.350;6.576;2023-07-28T00:51:03;95384.78;;;16.71;100.00
23229;BME280;11783;50.350;6.576;2023-07-28T00:53:28;95385.38;;;16.68;100.00
23229;BME280;11783;50.350;6.576;2023-07-28T00:55:55;95387.78;;;16.70;100.00
23229;BME280;11783;50.350;6.576;2023-07-28T00:58:21;95387.28;;;16.68;100.00
23229;BME280;11783;50.350;6.576;2023-07-28T01:00:46;95380.22;;;16.72;100.00
23229;BME280;11783;50.350;6.576;2023-07-28T01:03:13;95376.81;;;16.80;100.00
23229;BME280;11783;50.350;6.576;2023-07-28T01:05:46;95385.28;;;16.73;100.00
23229;BME280;11783;50.350;6.576;2023-07-28T01:08:25;95387.16;;;16.73;100.00
23229;BME280;11783;50.350;6.576;2023-07-28T01:10:52;95382.09;;;16.71;100.00
23229;BME280;11783;50.350;6.576;2023-07-28T01:13:17;95385.66;;;16.80;100.00
23229;BME280;11783;50.350;6.576;2023-07-28T01:15:43;95380.44;;;16.75;100.00
23229;BME280;11783;50.350;6.576;2023-07-28T01:18:08;95402.78;;;16.71;100.00
23229;BME280;11783;50.350;6.576;2023-07-28T01:20:34;95394.72;;;16.71;100.00
23229;BME280;11783;50.350;6.576;2023-07-28T01:23:20;95391.75;;;16.72;100.00
23229;BME280;11783;50.350;6.576;2023-07-28T01:26:11;95396.63;;;16.70;100.00
23229;BME280;11783;50.350;6.576;2023-07-28T01:28:38;95386.38;;;16.72;100.00
23229;BME280;11783;50.350;6.576;2023-07-28T01:31:06;95396.81;;;16.60;100.00
23229;BME280;11783;50.350;6.576;2023-07-28T01:33:32;95384.88;;;16.52;100.00
23229;BME280;11783;50.350;6.576;2023-07-28T01:35:58;95386.88;;;16.60;100.00
23229;BME280;11783;50.350;6.576;2023-07-28T01:38:26;95378.44;;;16.67;100.00
23229;BME280;11783;50.350;6.576;2023-07-28T01:40:51;95380.91;;;16.63;100.00
23229;BME280;11783;50.350;6.576;2023-07-28T01:43:16;95385.38;;;16.68;100.00
23229;BME280;11783;50.350;6.576;2023-07-28T01:45:42;95392.53;;;16.59;100.00
23229;BME280;11783;50.350;6.576;2023-07-28T01:48:07;95392.91;;;16.66;100.00
23229;BME280;11783;50.350;6.576;2023-07-28T01:50:34;95392.25;;;16.74;100.00
23229;BME280;11783;50.350;6.576;2023-07-28T01:53:00;95392.75;;;16.76;100.00
23229;BME280;11783;50.350;6.576;2023-07-28T01:55:25;95389.66;;;16.69;100.00
23229;BME280;11783;50.350;6.576;2023-07-28T01:57:59;95391.06;;;16.67;100.00
23229;BME280;11783;50.350;6.576;2023-07-28T02:00:25;95395.84;;;16.56;100.00
23229;BME280;11783;50.350;6.576;2023-07-28T02:02:51;95395.53;;;16.57;100.00
23229;BME280;11783;50.350;6.576;2023-07-28T02:05:17;95398.69;;;16.73;100.00
23229;BME280;11783;50.350;6.576;2023-07-28T02:07:43;95398.91;;;16.63;100.00
23229;BME280;11783;50.350;6.576;2023-07-28T02:10:09;95400.09;;;16.57;100.00
23229;BME280;11783;50.350;6.576;2023-07-28T02:12:35;95400.00;;;16.62;100.00
23229;BME280;11783;50.350;6.576;2023-07-28T02:15:01;95396.69;;;16.65;100.00
23229;BME280;11783;50.350;6.576;2023-07-28T02:17:26;95396.13;;;16.68;100.00
23229;BME280;11783;50.350;6.576;2023-07-28T02:19:51;95398.19;;;16.71;100.00
23229;BME280;11783;50.350;6.576;2023-07-28T02:22:17;95399.41;;;16.79;100.00
23229;BME280;11783;50.350;6.576;2023-07-28T02:24:42;95401.88;;;16.75;100.00
23229;BME280;11783;50.350;6.576;2023-07-28T02:27:08;95397.91;;;16.73;100.00
23229;BME280;11783;50.350;6.576;2023-07-28T02:29:33;95394.16;;;16.74;100.00
23229;BME280;11783;50.350;6.576;2023-07-28T02:31:58;95396.50;;;16.61;100.00
23229;BME280;11783;50.350;6.576;2023-07-28T02:34:24;95388.06;;;16.68;100.00
23229;BME280;11783;50.350;6.576;2023-07-28T02:36:49;95394.81;;;16.65;100.00
23229;BME280;11783;50.350;6.576;2023-07-28T02:39:15;95397.63;;;16.74;100.00
23229;BME280;11783;50.350;6.576;2023-07-28T02:41:40;95396.53;;;16.75;100.00
23229;BME280;11783;50.350;6.576;2023-07-28T02:44:05;95398.69;;;16.73;100.00
23229;BME280;11783;50.350;6.576;2023-07-28T02:46:31;95385.66;;;16.80;100.00
23229;BME280;11783;50.350;6.576;2023-07-28T02:48:56;95394.81;;;16.79;100.00
23229;BME280;11783;50.350;6.576;2023-07-28T02:51:21;95390.63;;;16.73;100.00
23229;BME280;11783;50.350;6.576;2023-07-28T02:53:47;95390.53;;;16.78;100.00
23229;BME280;11783;50.350;6.576;2023-07-28T02:56:12;95390.94;;;16.72;100.00
23229;BME280;11783;50.350;6.576;2023-07-28T02:58:37;95390.47;;;16.70;100.00
23229;BME280;11783;50.350;6.576;2023-07-28T03:01:03;95391.94;;;16.62;100.00
23229;BME280;11783;50.350;6.576;2023-07-28T03:03:28;95393.13;;;16.70;100.00
23229;BME280;11783;50.350;6.576;2023-07-28T03:05:54;95393.84;;;16.75;100.00
23229;BME280;11783;50.350;6.576;2023-07-28T03:08:20;95395.81;;;16.70;100.00
23229;BME280;11783;50.350;6.576;2023-07-28T03:10:45;95395.44;;;16.76;100.00
23229;BME280;11783;50.350;6.576;2023-07-28T03:13:11;95398.41;;;16.75;100.00
23229;BME280;11783;50.350;6.576;2023-07-28T03:15:36;95396.22;;;16.63;100.00
23229;BME280;11783;50.350;6.576;2023-07-28T03:18:01;95403.66;;;16.66;100.00
23229;BME280;11783;50.350;6.576;2023-07-28T03:20:27;95396.91;;;16.69;100.00
23229;BME280;11783;50.350;6.576;2023-07-28T03:22:52;95392.03;;;16.71;100.00
23229;BME280;11783;50.350;6.576;2023-07-28T03:25:18;95387.97;;;16.59;100.00
23229;BME280;11783;50.350;6.576;2023-07-28T03:27:43;95397.09;;;16.72;100.00
23229;BME280;11783;50.350;6.576;2023-07-28T03:30:09;95402.06;;;16.65;100.00
23229;BME280;11783;50.350;6.576;2023-07-28T03:32:36;95396.13;;;16.68;100.00
23229;BME280;11783;50.350;6.576;2023-07-28T03:35:01;95398.13;;;16.76;100.00
23229;BME280;11783;50.350;6.576;2023-07-28T03:37:27;95401.09;;;16.75;100.00
23229;BME280;11783;50.350;6.576;2023-07-28T03:39:52;95400.97;;;16.80;100.00
23229;BME280;11783;50.350;6.576;2023-07-28T03:42:17;95395.91;;;16.78;100.00
23229;BME280;11783;50.350;6.576;2023-07-28T03:44:43;95405.75;;;16.69;100.00
23229;BME280;11783;50.350;6.576;2023-07-28T03:47:08;95402.28;;;16.69;100.00
23229;BME280;11783;50.350;6.576;2023-07-28T03:49:34;95404.44;;;16.80;100.00
23229;BME280;11783;50.350;6.576;2023-07-28T03:51:59;95402.44;;;16.86;100.00
23229;BME280;11783;50.350;6.576;2023-07-28T03:54:25;95408.22;;;16.79;100.00
23229;BME280;11783;50.350;6.576;2023-07-28T03:56:50;95415.00;;;16.77;100.00
23229;BME280;11783;50.350;6.576;2023-07-28T03:59:16;95417.38;;;16.78;100.00
23229;BME280;11783;50.350;6.576;2023-07-28T04:01:41;95416.41;;;16.74;100.00
23229;BME280;11783;50.350;6.576;2023-07-28T04:04:06;95420.06;;;16.78;100.00
23229;BME280;11783;50.350;6.576;2023-07-28T04:06:43;95421.34;;;16.81;100.00
23229;BME280;11783;50.350;6.576;2023-07-28T04:09:09;95421.84;;;16.69;100.00
23229;BME280;11783;50.350;6.576;2023-07-28T04:11:35;95418.16;;;16.51;100.00
23229;BME280;11783;50.350;6.576;2023-07-28T04:14:00;95421.56;;;16.57;100.00
23229;BME280;11783;50.350;6.576;2023-07-28T04:16:26;95418.41;;;16.55;100.00
23229;BME280;11783;50.350;6.576;2023-07-28T04:18:51;95417.19;;;16.61;100.00
23229;BME280;11783;50.350;6.576;2023-07-28T04:21:16;95423.53;;;16.65;100.00
23229;BME280;11783;50.350;6.576;2023-07-28T04:23:42;95428.31;;;16.68;100.00
23229;BME280;11783;50.350;6.576;2023-07-28T04:26:08;95431.41;;;16.75;100.00
23229;BME280;11783;50.350;6.576;2023-07-28T04:28:34;95428.41;;;16.63;100.00
23229;BME280;11783;50.350;6.576;2023-07-28T04:30:59;95427.63;;;16.62;100.00
23229;BME280;11783;50.350;6.576;2023-07-28T04:33:24;95429.69;;;16.65;100.00
23229;BME280;11783;50.350;6.576;2023-07-28T04:35:50;95433.97;;;16.80;100.00
23229;BME280;11783;50.350;6.576;2023-07-28T04:38:15;95431.78;;;16.82;100.00
23229;BME280;11783;50.350;6.576;2023-07-28T04:40:42;95429.59;;;16.84;100.00
23229;BME280;11783;50.350;6.576;2023-07-28T04:43:07;95435.31;;;16.91;100.00
23229;BME280;11783;50.350;6.576;2023-07-28T04:45:33;95437.44;;;16.94;100.00
23229;BME280;11783;50.350;6.576;2023-07-28T04:47:58;95433.84;;;16.85;100.00
23229;BME280;11783;50.350;6.576;2023-07-28T04:50:24;95437.75;;;16.79;100.00
23229;BME280;11783;50.350;6.576;2023-07-28T04:52:49;95439.81;;;16.82;100.00
23229;BME280;11783;50.350;6.576;2023-07-28T04:55:14;95443.31;;;16.83;100.00
23229;BME280;11783;50.350;6.576;2023-07-28T04:57:40;95450.44;;;16.87;100.00
23229;BME280;11783;50.350;6.576;2023-07-28T05:00:05;95451.94;;;16.93;100.00
23229;BME280;11783;50.350;6.576;2023-07-28T05:02:31;95454.31;;;16.95;100.00
23229;BME280;11783;50.350;6.576;2023-07-28T05:04:56;95453.00;;;17.06;100.00
23229;BME280;11783;50.350;6.576;2023-07-28T05:07:21;95460.25;;;17.06;100.00
23229;BME280;11783;50.350;6.576;2023-07-28T05:09:47;95458.66;;;17.05;100.00
23229;BME280;11783;50.350;6.576;2023-07-28T05:12:12;95457.25;;;17.07;100.00
23229;BME280;11783;50.350;6.576;2023-07-28T05:14:38;95459.44;;;17.05;100.00
23229;BME280;11783;50.350;6.576;2023-07-28T05:17:03;95460.56;;;17.04;100.00
23229;BME280;11783;50.350;6.576;2023-07-28T05:19:30;95470.06;;;17.10;100.00
23229;BME280;11783;50.350;6.576;2023-07-28T05:21:55;95467.09;;;17.12;100.00
23229;BME280;11783;50.350;6.576;2023-07-28T05:24:20;95464.69;;;17.10;100.00
23229;BME280;11783;50.350;6.576;2023-07-28T05:26:46;95461.13;;;17.15;100.00
23229;BME280;11783;50.350;6.576;2023-07-28T05:29:11;95466.53;;;17.01;100.00
23229;BME280;11783;50.350;6.576;2023-07-28T05:31:36;95467.09;;;17.12;100.00
23229;BME280;11783;50.350;6.576;2023-07-28T05:34:03;95474.38;;;17.11;100.00
23229;BME280;11783;50.350;6.576;2023-07-28T05:36:29;95470.19;;;17.05;100.00
23229;BME280;11783;50.350;6.576;2023-07-28T05:38:54;95472.19;;;17.13;100.00
23229;BME280;11783;50.350;6.576;2023-07-28T05:41:21;95470.34;;;17.22;100.00
23229;BME280;11783;50.350;6.576;2023-07-28T05:43:47;95467.34;;;17.24;100.00
23229;BME280;11783;50.350;6.576;2023-07-28T05:46:12;95469.84;;;17.20;100.00
23229;BME280;11783;50.350;6.576;2023-07-28T05:48:37;95475.34;;;17.15;100.00
23229;BME280;11783;50.350;6.576;2023-07-28T05:51:03;95470.84;;;17.24;100.00
23229;BME280;11783;50.350;6.576;2023-07-28T05:53:28;95479.16;;;17.37;100.00
23229;BME280;11783;50.350;6.576;2023-07-28T05:55:53;95480.56;;;17.34;100.00
23229;BME280;11783;50.350;6.576;2023-07-28T05:58:19;95483.25;;;17.34;100.00
23229;BME280;11783;50.350;6.576;2023-07-28T06:00:44;95491.63;;;17.33;100.00
23229;BME280;11783;50.350;6.576;2023-07-28T06:03:10;95488.81;;;17.38;100.00
23229;BME280;11783;50.350;6.576;2023-07-28T06:05:38;95488.19;;;17.41;100.00
23229;BME280;11783;50.350;6.576;2023-07-28T06:08:04;95497.72;;;17.47;100.00
23229;BME280;11783;50.350;6.576;2023-07-28T06:10:30;95486.78;;;17.43;100.00
23229;BME280;11783;50.350;6.576;2023-07-28T06:12:55;95490.56;;;17.42;100.00
23229;BME280;11783;50.350;6.576;2023-07-28T06:15:20;95486.97;;;17.47;100.00
23229;BME280;11783;50.350;6.576;2023-07-28T06:17:45;95491.13;;;17.53;100.00
23229;BME280;11783;50.350;6.576;2023-07-28T06:20:11;95494.50;;;17.59;100.00
23229;BME280;11783;50.350;6.576;2023-07-28T06:22:36;95493.09;;;17.61;100.00
23229;BME280;11783;50.350;6.576;2023-07-28T06:25:02;95490.69;;;17.60;100.00
23229;BME280;11783;50.350;6.576;2023-07-28T06:27:27;95499.34;;;17.70;100.00
23229;BME280;11783;50.350;6.576;2023-07-28T06:29:53;95495.88;;;17.70;100.00
23229;BME280;11783;50.350;6.576;2023-07-28T06:32:18;95494.78;;;17.71;100.00
23229;BME280;11783;50.350;6.576;2023-07-28T06:34:45;95488.47;;;17.75;100.00
23229;BME280;11783;50.350;6.576;2023-07-28T06:37:11;95500.50;;;17.78;100.00
23229;BME280;11783;50.350;6.576;2023-07-28T06:39:36;95495.78;;;17.83;100.00
23229;BME280;11783;50.350;6.576;2023-07-28T06:42:02;95506.13;;;17.90;100.00
23229;BME280;11783;50.350;6.576;2023-07-28T06:44:27;95504.38;;;17.85;100.00
23229;BME280;11783;50.350;6.576;2023-07-28T06:46:52;95508.81;;;17.90;100.00
23229;BME280;11783;50.350;6.576;2023-07-28T06:49:18;95511.06;;;17.97;100.00
23229;BME280;11783;50.350;6.576;2023-07-28T06:51:43;95520.56;;;17.72;100.00
23229;BME280;11783;50.350;6.576;2023-07-28T06:54:08;95515.19;;;17.58;100.00
23229;BME280;11783;50.350;6.576;2023-07-28T06:56:38;95523.41;;;17.75;100.00
23229;BME280;11783;50.350;6.576;2023-07-28T06:59:03;95527.88;;;17.80;100.00
23229;BME280;11783;50.350;6.576;2023-07-28T07:01:28;95521.56;;;17.84;100.00
23229;BME280;11783;50.350;6.576;2023-07-28T07:03:54;95523.28;;;17.80;100.00
23229;BME280;11783;50.350;6.576;2023-07-28T07:06:21;95507.53;;;17.88;100.00
23229;BME280;11783;50.350;6.576;2023-07-28T07:08:46;95519.72;;;17.85;100.00
23229;BME280;11783;50.350;6.576;2023-07-28T07:11:11;95524.47;;;17.88;100.00
23229;BME280;11783;50.350;6.576;2023-07-28T07:13:37;95518.69;;;18.03;100.00
23229;BME280;11783;50.350;6.576;2023-07-28T07:16:02;95526.75;;;18.03;100.00
23229;BME280;11783;50.350;6.576;2023-07-28T07:18:27;95525.41;;;18.14;100.00
23229;BME280;11783;50.350;6.576;2023-07-28T07:20:53;95522.88;;;18.18;100.00
23229;BME280;11783;50.350;6.576;2023-07-28T07:23:18;95528.28;;;18.18;100.00
23229;BME280;11783;50.350;6.576;2023-07-28T07:25:43;95531.66;;;18.24;100.00
23229;BME280;11783;50.350;6.576;2023-07-28T07:28:09;95532.84;;;18.17;100.00
23229;BME280;11783;50.350;6.576;2023-07-28T07:30:34;95528.44;;;18.22;100.00
23229;BME280;11783;50.350;6.576;2023-07-28T07:33:00;95524.22;;;18.29;100.00
23229;BME280;11783;50.350;6.576;2023-07-28T07:35:25;95530.75;;;18.37;100.00
23229;BME280;11783;50.350;6.576;2023-07-28T07:37:51;95530.56;;;18.33;100.00
23229;BME280;11783;50.350;6.576;2023-07-28T07:40:16;95531.22;;;18.39;100.00
23229;BME280;11783;50.350;6.576;2023-07-28T07:42:45;95534.06;;;18.34;100.00
23229;BME280;11783;50.350;6.576;2023-07-28T07:45:11;95537.72;;;18.38;100.00
23229;BME280;11783;50.350;6.576;2023-07-28T07:47:37;95545.03;;;18.46;100.00
23229;BME280;11783;50.350;6.576;2023-07-28T07:50:02;95550.16;;;18.56;100.00
23229;BME280;11783;50.350;6.576;2023-07-28T07:52:28;95552.22;;;18.59;100.00
23229;BME280;11783;50.350;6.576;2023-07-28T07:54:53;95547.84;;;18.63;100.00
23229;BME280;11783;50.350;6.576;2023-07-28T07:57:19;95547.69;;;18.68;100.00
23229;BME280;11783;50.350;6.576;2023-07-28T07:59:44;95555.19;;;18.80;100.00
23229;BME280;11783;50.350;6.576;2023-07-28T08:02:09;95555.69;;;18.91;100.00
23229;BME280;11783;50.350;6.576;2023-07-28T08:04:34;95555.75;;;18.99;100.00
23229;BME280;11783;50.350;6.576;2023-07-28T08:07:01;95556.84;;;19.07;100.00
23229;BME280;11783;50.350;6.576;2023-07-28T08:09:29;95557.81;;;19.11;100.00
23229;BME280;11783;50.350;6.576;2023-07-28T08:11:54;95566.69;;;19.12;100.00
23229;BME280;11783;50.350;6.576;2023-07-28T08:14:20;95569.72;;;19.19;100.00
23229;BME280;11783;50.350;6.576;2023-07-28T08:16:45;95571.13;;;19.08;100.00
23229;BME280;11783;50.350;6.576;2023-07-28T08:19:10;95577.50;;;19.20;100.00
23229;BME280;11783;50.350;6.576;2023-07-28T08:21:36;95581.63;;;19.18;100.00
23229;BME280;11783;50.350;6.576;2023-07-28T08:24:02;95576.53;;;19.16;100.00
23229;BME280;11783;50.350;6.576;2023-07-28T08:26:29;95574.81;;;19.20;100.00
23229;BME280;11783;50.350;6.576;2023-07-28T08:28:54;95576.72;;;19.28;100.00
23229;BME280;11783;50.350;6.576;2023-07-28T08:31:20;95578.81;;;19.40;100.00
23229;BME280;11783;50.350;6.576;2023-07-28T08:33:46;95584.34;;;19.44;100.00
23229;BME280;11783;50.350;6.576;2023-07-28T08:36:11;95576.44;;;19.47;100.00
23229;BME280;11783;50.350;6.576;2023-07-28T08:38:36;95574.69;;;19.51;100.00
23229;BME280;11783;50.350;6.576;2023-07-28T08:41:02;95579.75;;;19.44;100.00
23229;BME280;11783;50.350;6.576;2023-07-28T08:43:28;95581.19;;;19.50;100.00
23229;BME280;11783;50.350;6.576;2023-07-28T08:45:53;95581.19;;;19.50;100.00
23229;BME280;11783;50.350;6.576;2023-07-28T08:48:20;95591.72;;;19.60;100.00
23229;BME280;11783;50.350;6.576;2023-07-28T08:50:45;95596.63;;;19.67;100.00
23229;BME280;11783;50.350;6.576;2023-07-28T08:53:10;95599.94;;;19.64;100.00
23229;BME280;11783;50.350;6.576;2023-07-28T08:55:36;95595.03;;;19.57;100.00
23229;BME280;11783;50.350;6.576;2023-07-28T08:58:21;95592.59;;;19.47;100.00
23229;BME280;11783;50.350;6.576;2023-07-28T09:00:47;95590.69;;;19.48;100.00
23229;BME280;11783;50.350;6.576;2023-07-28T09:03:17;95593.75;;;19.55;100.00
23229;BME280;11783;50.350;6.576;2023-07-28T09:05:44;95601.38;;;19.61;100.00
23229;BME280;11783;50.350;6.576;2023-07-28T09:08:12;95591.38;;;19.62;100.00
23229;BME280;11783;50.350;6.576;2023-07-28T09:10:45;95597.03;;;19.52;100.00
23229;BME280;11783;50.350;6.576;2023-07-28T09:13:15;95593.06;;;19.41;100.00
23229;BME280;11783;50.350;6.576;2023-07-28T09:15:40;95600.69;;;19.47;100.00
23229;BME280;11783;50.350;6.576;2023-07-28T09:18:10;95608.63;;;19.52;100.00
23229;BME280;11783;50.350;6.576;2023-07-28T09:20:38;95596.88;;;19.48;100.00
23229;BME280;11783;50.350;6.576;2023-07-28T09:23:04;95599.72;;;19.43;100.00
23229;BME280;11783;50.350;6.576;2023-07-28T09:25:31;95603.22;;;19.44;100.00
23229;BME280;11783;50.350;6.576;2023-07-28T09:27:57;95603.38;;;19.39;100.00
23229;BME280;11783;50.350;6.576;2023-07-28T09:30:24;95605.44;;;19.42;100.00
23229;BME280;11783;50.350;6.576;2023-07-28T09:32:51;95602.59;;;19.47;100.00
23229;BME280;11783;50.350;6.576;2023-07-28T09:35:18;95607.25;;;19.55;100.00
23229;BME280;11783;50.350;6.576;2023-07-28T09:37:45;95603.22;;;19.35;100.00
23229;BME280;11783;50.350;6.576;2023-07-28T09:40:13;95590.66;;;19.30;100.00
23229;BME280;11783;50.350;6.576;2023-07-28T09:42:44;95591.00;;;19.38;100.00
23229;BME280;11783;50.350;6.576;2023-07-28T09:45:15;95607.81;;;19.52;100.00
23229;BME280;11783;50.350;6.576;2023-07-28T09:47:43;95603.91;;;19.66;100.00
23229;BME280;11783;50.350;6.576;2023-07-28T09:50:10;95610.44;;;19.74;100.00
23229;BME280;11783;50.350;6.576;2023-07-28T09:52:45;95611.38;;;19.78;100.00
23229;BME280;11783;50.350;6.576;2023-07-28T09:55:11;95610.91;;;19.76;100.00
23229;BME280;11783;50.350;6.576;2023-07-28T09:57:44;95607.56;;;19.71;100.00
23229;BME280;11783;50.350;6.576;2023-07-28T10:00:11;95608.84;;;19.73;100.00
23229;BME280;11783;50.350;6.576;2023-07-28T10:02:38;95605.34;;;19.81;100.00
23229;BME280;11783;50.350;6.576;2023-07-28T10:05:05;95620.25;;;19.87;100.00
23229;BME280;11783;50.350;6.576;2023-07-28T10:07:32;95617.44;;;19.92;100.00
23229;BME280;11783;50.350;6.576;2023-07-28T10:09:58;95613.94;;;20.01;100.00
23229;BME280;11783;50.350;6.576;2023-07-28T10:12:24;95616.94;;;20.08;100.00
23229;BME280;11783;50.350;6.576;2023-07-28T10:15:01;95616.16;;;20.16;100.00
23229;BME280;11783;50.350;6.576;2023-07-28T10:17:34;95612.50;;;20.29;100.00
23229;BME280;11783;50.350;6.576;2023-07-28T10:20:06;95619.00;;;20.28;100.00
23229;BME280;11783;50.350;6.576;2023-07-28T10:22:51;95625.00;;;20.25;100.00
23229;BME280;11783;50.350;6.576;2023-07-28T10:25:22;95620.13;;;20.27;100.00
23229;BME280;11783;50.350;6.576;2023-07-28T10:27:50;95619.31;;;20.35;100.00
23229;BME280;11783;50.350;6.576;2023-07-28T10:30:16;95617.72;;;20.34;100.00
23229;BME280;11783;50.350;6.576;2023-07-28T10:32:48;95617.25;;;20.41;100.00
23229;BME280;11783;50.350;6.576;2023-07-28T10:37:47;95627.25;;;20.49;100.00
23229;BME280;11783;50.350;6.576;2023-07-28T10:40:33;95625.63;;;20.39;100.00
23229;BME280;11783;50.350;6.576;2023-07-28T10:43:03;95630.25;;;20.39;100.00
23229;BME280;11783;50.350;6.576;2023-07-28T10:45:31;95629.81;;;20.45;100.00
23229;BME280;11783;50.350;6.576;2023-07-28T10:47:58;95627.56;;;20.47;100.00
23229;BME280;11783;50.350;6.576;2023-07-28T10:50:29;95632.50;;;20.45;100.00
23229;BME280;11783;50.350;6.576;2023-07-28T10:52:55;95627.09;;;20.45;100.00
23229;BME280;11783;50.350;6.576;2023-07-28T10:55:26;95634.56;;;20.48;100.00
23229;BME280;11783;50.350;6.576;2023-07-28T10:57:53;95622.66;;;20.41;100.00
23229;BME280;11783;50.350;6.576;2023-07-28T11:00:20;95628.19;;;20.53;100.00
23229;BME280;11783;50.350;6.576;2023-07-28T11:02:52;95632.34;;;20.50;100.00
23229;BME280;11783;50.350;6.576;2023-07-28T11:05:26;95633.09;;;20.60;100.00
23229;BME280;11783;50.350;6.576;2023-07-28T11:07:56;95628.53;;;20.51;100.00
23229;BME280;11783;50.350;6.576;2023-07-28T11:10:22;95628.66;;;20.55;100.00
23229;BME280;11783;50.350;6.576;2023-07-28T11:12:50;95631.34;;;20.64;100.00
23229;BME280;11783;50.350;6.576;2023-07-28T11:15:17;95628.50;;;20.60;100.00
23229;BME280;11783;50.350;6.576;2023-07-28T11:17:45;95636.72;;;20.64;100.00
23229;BME280;11783;50.350;6.576;2023-07-28T11:20:21;95635.78;;;20.68;100.00
23229;BME280;11783;50.350;6.576;2023-07-28T11:23:00;95633.06;;;20.77;100.00
23229;BME280;11783;50.350;6.576;2023-07-28T11:25:28;95638.63;;;20.72;100.00
23229;BME280;11783;50.350;6.576;2023-07-28T11:27:54;95645.47;;;20.69;100.00
23229;BME280;11783;50.350;6.576;2023-07-28T11:30:21;95625.81;;;20.51;100.00
23229;BME280;11783;50.350;6.576;2023-07-28T11:32:51;95635.47;;;20.70;100.00
23229;BME280;11783;50.350;6.576;2023-07-28T11:35:19;95633.09;;;20.68;100.00
23229;BME280;11783;50.350;6.576;2023-07-28T11:37:47;95632.31;;;20.59;100.00
23229;BME280;11783;50.350;6.576;2023-07-28T11:40:15;95639.47;;;20.55;100.00
23229;BME280;11783;50.350;6.576;2023-07-28T11:42:44;95641.19;;;20.60;100.00
23229;BME280;11783;50.350;6.576;2023-07-28T11:45:10;95633.75;;;20.65;100.00
23229;BME280;11783;50.350;6.576;2023-07-28T11:47:37;95633.56;;;20.62;100.00
23229;BME280;11783;50.350;6.576;2023-07-28T11:50:03;95637.06;;;20.62;100.00
23229;BME280;11783;50.350;6.576;2023-07-28T11:52:33;95630.81;;;20.79;100.00
23229;BME280;11783;50.350;6.576;2023-07-28T11:55:00;95629.22;;;20.86;100.00
23229;BME280;11783;50.350;6.576;2023-07-28T11:57:26;95626.84;;;20.85;100.00
23229;BME280;11783;50.350;6.576;2023-07-28T11:59:53;95625.25;;;20.84;100.00
23229;BME280;11783;50.350;6.576;2023-07-28T12:02:26;95626.53;;;20.86;100.00
23229;BME280;11783;50.350;6.576;2023-07-28T12:04:51;95626.47;;;20.95;100.00
23229;BME280;11783;50.350;6.576;2023-07-28T12:07:20;95636.03;;;20.93;100.00
23229;BME280;11783;50.350;6.576;2023-07-28T12:12:23;95643.38;;;20.83;100.00
23229;BME280;11783;50.350;6.576;2023-07-28T12:14:49;95638.25;;;20.91;100.00
23229;BME280;11783;50.350;6.576;2023-07-28T12:17:25;95629.38;;;20.90;100.00
23229;BME280;11783;50.350;6.576;2023-07-28T12:20:06;95627.59;;;20.94;100.00
23229;BME280;11783;50.350;6.576;2023-07-28T12:22:37;95630.75;;;21.05;100.00
23229;BME280;11783;50.350;6.576;2023-07-28T12:25:02;95631.41;;;21.02;100.00
23229;BME280;11783;50.350;6.576;2023-07-28T12:27:29;95629.91;;;21.13;100.00
23229;BME280;11783;50.350;6.576;2023-07-28T12:29:55;95629.88;;;21.22;100.00
23229;BME280;11783;50.350;6.576;2023-07-28T12:32:20;95626.97;;;21.35;100.00
23229;BME280;11783;50.350;6.576;2023-07-28T12:34:48;95628.56;;;21.36;100.00
23229;BME280;11783;50.350;6.576;2023-07-28T12:37:13;95631.22;;;21.45;100.00
23229;BME280;11783;50.350;6.576;2023-07-28T12:39:39;95639.09;;;21.59;100.00
23229;BME280;11783;50.350;6.576;2023-07-28T12:42:08;95634.06;;;21.78;100.00
23229;BME280;11783;50.350;6.576;2023-07-28T12:44:34;95637.56;;;21.79;100.00
23229;BME280;11783;50.350;6.576;2023-07-28T12:47:00;95641.63;;;21.85;100.00
23229;BME280;11783;50.350;6.576;2023-07-28T12:49:25;95638.00;;;21.81;100.00
23229;BME280;11783;50.350;6.576;2023-07-28T12:51:51;95647.75;;;21.94;100.00